• Join FlightAware (Why Join?)
  • Login
  • US Flag 
02:17PM EDT


 

Airport Tracker/Info


-or-


 

Live Flight TrackerFlight Track Log ✈ N1944E ✈ 22-Aug-2013 ✈ KCOD - KCOE

Flight Track Log - Related Links

Times and Time Zones

All times are in EDT time to prevent confusion due to time zone crossing. See the N1944E flight status page for this flight to view local times or setup timezone preferences in your user account.

Time Position Orientation Groundspeed Altitude Reporting Facility
EDT Latitude Longitude Course Direction KTS MPH feet Rate Location/Type
08:43AM 44.6389 -109.2161 304° West 129 148 10,800  Level Salt Lake Center
08:44AM 44.6583 -109.2569 304° West 128 147 11,700 840 Climbing Salt Lake Center
08:45AM 44.6797 -109.3003 305° West 131 151 12,500 720 Climbing Salt Lake Center
08:46AM 44.7006 -109.3483 301° West 139 160 13,200 780 Climbing Salt Lake Center
08:47AM 44.7250 -109.4069 300° West 148 170 14,200 840 Climbing Salt Lake Center
08:48AM 44.7508 -109.4583 305° West 151 174 14,900 720 Climbing Salt Lake Center
08:49AM 44.7756 -109.5092 304° West 156 180 15,700 780 Climbing Salt Lake Center
08:50AM 44.7994 -109.5622 302° West 160 184 16,500 660 Climbing Salt Lake Center
08:51AM 44.8247 -109.6189 302° West 167 192 17,100 600 Climbing Salt Lake Center
08:52AM 44.8531 -109.6736 306° West 171 197 17,800 480 Climbing Salt Lake Center
08:53AM 44.8806 -109.7322 304° West 177 204 18,100 60 Climbing Salt Lake Center
08:54AM 44.9097 -109.7992 302° West 193 222 18,000  Descending Salt Lake Center
08:55AM 44.9392 -109.8633 303° West 204 235 18,100  Climbing Salt Lake Center
08:56AM 44.9778 -109.9372 306° West 208 239 18,000 -60 Descending Salt Lake Center
08:57AM 45.0086 -109.9989 305° West 204 235 18,000  Level Salt Lake Center
08:58AM 45.0394 -110.0614 305° West 204 235 18,000  Level Salt Lake Center
08:59AM 45.0728 -110.1364 302° West 202 232 18,000  Level Salt Lake Center
09:00AM 45.1017 -110.2011 302° West 204 235 18,000  Level Salt Lake Center
09:01AM 45.1292 -110.2664 301° West 203 234 18,000  Level Salt Lake Center
09:02AM 45.1583 -110.3339 302° West 202 232 18,000  Level Salt Lake Center
09:03AM 45.1878 -110.4014 302° West 202 232 18,000  Level Salt Lake Center
09:04AM 45.2186 -110.4675 304° West 202 232 18,000  Level Salt Lake Center
09:05AM 45.2486 -110.5342 303° West 201 231 18,000  Level Salt Lake Center
09:06AM 45.2844 -110.6092 304° West 206 237 18,000  Level Salt Lake Center
09:07AM 45.3133 -110.6722 303° West 202 232 18,000  Level Salt Lake Center
09:08AM 45.3475 -110.7478 303° West 203 234 18,000  Level Salt Lake Center
09:09AM 45.3769 -110.8158 302° West 200 230 18,000  Level Salt Lake Center
09:10AM 45.4089 -110.8861 303° West 200 230 18,000  Level Salt Lake Center
09:11AM 45.4372 -110.9494 303° West 201 231 18,000  Level Salt Lake Center
09:12AM 45.4672 -111.0119 304° West 199 229 18,000  Level Salt Lake Center
09:13AM 45.4992 -111.0881 301° West 200 230 18,000  Level Salt Lake Center
09:14AM 45.5264 -111.1522 301° West 199 229 18,000  Level Salt Lake Center
09:15AM 45.5528 -111.2161 301° West 198 228 18,000  Level Salt Lake Center
09:17AM 45.5850 -111.2914 301° West 198 228 18,000  Level Salt Lake Center
09:18AM 45.6139 -111.3561 303° West 200 230 18,000  Level Salt Lake Center
09:19AM 45.6422 -111.4189 303° West 198 228 18,000  Level Salt Lake Center
09:20AM 45.6756 -111.4922 303° West 197 227 18,000  Level Salt Lake Center
09:21AM 45.7033 -111.5544 303° West 196 226 18,100  Climbing Salt Lake Center
09:22AM 45.7356 -111.6278 302° West 195 224 18,000 -60 Descending Salt Lake Center
09:23AM 45.7619 -111.6922 300° West 196 226 18,000  Level Salt Lake Center
09:24AM 45.7889 -111.7553 302° West 196 226 18,100  Climbing Salt Lake Center
09:25AM 45.8192 -111.8303 300° West 195 224 18,100  Level Salt Lake Center
09:26AM 45.8458 -111.8917 302° West 192 221 18,100  Level Salt Lake Center
09:27AM 45.8750 -111.9536 304° West 194 223 18,100  Level Salt Lake Center
09:28AM 45.9081 -112.0272 303° West 196 226 18,100 -60 Level Salt Lake Center
09:29AM 45.9339 -112.0897 301° West 193 222 18,000  Descending Salt Lake Center
09:30AM 45.9661 -112.1611 303° West 191 220 18,100  Climbing Salt Lake Center
09:31AM 45.9922 -112.2242 301° West 191 220 18,100  Level Salt Lake Center
09:32AM 46.0192 -112.2867 302° West 192 221 18,100  Level Salt Lake Center
09:33AM 46.0503 -112.3611 301° West 195 224 18,100  Level Salt Lake Center
09:34AM 46.0767 -112.4250 301° West 194 223 18,100  Level Salt Lake Center
09:35AM 46.1078 -112.4992 301° West 194 223 18,100  Level Salt Lake Center
09:36AM 46.1347 -112.5625 302° West 194 223 18,100  Level Salt Lake Center
09:37AM 46.1608 -112.6261 301° West 193 222 18,100  Level Salt Lake Center
09:38AM 46.1917 -112.7019 300° West 196 226 18,100  Level Salt Lake Center
09:39AM 46.2181 -112.7647 301° West 193 222 18,100  Level Salt Lake Center
09:40AM 46.2492 -112.8378 302° West 192 221 18,100  Level Salt Lake Center
09:41AM 46.2761 -112.9044 300° West 197 227 18,100  Level Salt Lake Center
09:42AM 46.3025 -112.9681 301° West 196 226 18,100  Level Salt Lake Center
09:43AM 46.3325 -113.0428 300° West 193 222 18,100  Level Salt Lake Center
09:44AM 46.3619 -113.1067 304° West 194 223 18,100  Level Salt Lake Center
09:45AM 46.3928 -113.1806 301° West 197 227 18,100  Level Salt Lake Center
09:46AM 46.4183 -113.2503 298° West 192 221 18,100  Level Salt Lake Center
09:47AM 46.4472 -113.3203 301° West 192 221 18,100  Level Salt Lake Center
09:48AM 46.4747 -113.3892 300° West 198 228 18,100  Level Salt Lake Center
09:49AM 46.5019 -113.4556 301° West 195 224 18,100  Level Salt Lake Center
09:50AM 46.5303 -113.5278 300° West 193 222 18,100  Level Salt Lake Center
09:51AM 46.5561 -113.5944 299° West 190 219 18,100  Level Salt Lake Center
09:52AM 46.5836 -113.6603 301° West 192 221 18,100  Level Salt Lake Center
09:53AM 46.6122 -113.7322 300° West 190 219 18,100  Level Salt Lake Center
09:54AM 46.6394 -113.7986 301° West 191 220 18,100  Level Salt Lake Center
09:55AM 46.6658 -113.8642 300° West 190 219 18,100  Level Salt Lake Center
09:56AM 46.6936 -113.9356 300° West 188 216 18,100  Level Salt Lake Center
09:57AM 46.7200 -114.0025 300° West 191 220 18,100  Level Salt Lake Center
09:58AM 46.7458 -114.0703 299° West 191 220 18,100  Level Salt Lake Center
09:59AM 46.7747 -114.1417 301° West 191 220 18,100  Level Salt Lake Center
10:00AM 46.8019 -114.2081 301° West 191 220 18,100  Level Salt Lake Center
10:01AM 46.8292 -114.2744 301° West 191 220 18,100  Level Salt Lake Center
10:03AM 46.8561 -114.3417 300° West 192 221 18,100  Level Salt Lake Center
10:04AM 46.8836 -114.4153 299° West 191 220 18,100  Level Salt Lake Center
10:05AM 46.9100 -114.4825 300° West 193 222 18,100  Level Salt Lake Center
10:06AM 46.9358 -114.5514 299° West 193 222 18,100  Level Salt Lake Center
10:07AM 46.9633 -114.6247 299° West 192 221 18,100  Level Salt Lake Center
10:08AM 46.9900 -114.6933 300° West 193 222 18,100  Level Salt Lake Center
10:09AM 47.0189 -114.7661 300° West 193 222 18,100  Level Salt Lake Center
10:10AM 47.0447 -114.8331 300° West 190 219 18,100  Level Salt Lake Center
10:11AM 47.0694 -114.8964 300° West 192 221 18,100  Level Salt Lake Center
10:12AM 47.0961 -114.9625 301° West 190 219 18,100  Level Salt Lake Center
10:13AM 47.1233 -115.0322 300° West 196 226 18,100  Level Salt Lake Center
10:14AM 47.1503 -115.1008 300° West 196 226 18,100  Level Salt Lake Center
10:15AM 47.1811 -115.1833 299° West 189 217 18,100  Level Salt Lake Center
10:16AM 47.2072 -115.2547 298° West 197 227 18,100  Level Salt Lake Center
10:17AM 47.2339 -115.3267 299° West 199 229 18,100  Level Salt Lake Center
10:18AM 47.2592 -115.3969 298° West 197 227 18,100 -300 Level Salt Lake Center
10:19AM 47.2853 -115.4672 299° West 196 226 17,600 -540 Descending Salt Lake Center
10:20AM 47.3147 -115.5458 299° West 211 243 17,100 -540 Descending Salt Lake Center
10:21AM 47.3436 -115.6211 300° West 213 245 16,600 -660 Descending Salt Lake Center
10:22AM 47.3786 -115.7067 301° West 207 238 15,800 -780 Descending Seattle Center
10:23AM 47.4067 -115.7850 298° West 210 242 15,000 -840 Descending Seattle Center
10:24AM 47.4319 -115.8622 296° West 211 243 14,200 -780 Descending Seattle Center
10:25AM 47.4592 -115.9372 298° West 210 242 13,500 -840 Descending Seattle Center
10:26AM 47.4881 -116.0092 301° West 206 237 12,600 -960 Descending Seattle Center
10:27AM 47.5161 -116.0836 299° West 207 238 11,600 -960 Descending Seattle Center
10:28AM 47.5453 -116.1581 300° West 210 242 10,700 -960 Descending Seattle Center
10:29AM 47.5739 -116.2439 296° West 199 229 9,700 -1,020 Descending Seattle Center